ENHD/HAU METAR and TAF weather

Enter ICAO airport designator
Station Type Date Time Source
ENHD METAR 2021/06/22 23:20 UTC NOAA

ENHD 222320Z AUTO 35013KT 9999 NCD 11/09 Q1019


Station Type Date Time Source
ENHD Decoded METAR 2021/06/22 23:20 UTC NOAA

Haugesund / Karmoy, Norway (ENHD) 59-21N 005-13E 24M
Jun 22, 2021 - 07:20 PM EDT / 2021.06.22 2320 UTC
Wind: from the N (350 degrees) at 15 MPH (13 KT):0
Visibility: greater than 7 mile(s):0
Temperature: 51 F (11 C)
Dew Point: 48 F (9 C)
Relative Humidity: 87%
Pressure (altimeter): 30.09 in. Hg (1019 hPa)
ob: ENHD 222320Z AUTO 35013KT 9999 NCD 11/09 Q1019
cycle: 23

Station Type Date Time Source
ENHD TAF UTC NOAA

Error!

Example: see airport list